Ringmer, United Kingdom
Current Conditions -  °F | °C
As of 2:20 PM on Wednesday 28 Jan 2015 (Local Time) from EGKA Reporting Station
Few Clouds Few Clouds  
Wind Chill: 37°   Ceiling: Unl
Heat Index: 45°   Visibility: 6mi
Dew Point: 36°   Wind: 17mph
Humidity: 71%   Direction: 270°W
Pressure: 29.59"   Gusts: 29mph
Location:  50.89°N, 0.06°E
Report Text: EGKA 281420Z 27015G25KT 9999 FEW012 07/02 Q1002 RESHRA
Loading
Personal Weather Stations






























Interactive Weather Map New forecast layout! Learn more

10-Day Weather Forecast

Advertisements
Track Severe Weather on mobile